createdAt,value
2018-09-26T00:00:52.226Z,1.03
2018-09-26T00:03:29.556Z,1.10
2018-09-26T00:05:56.649Z,0.70
2018-09-26T00:08:23.729Z,0.53
2018-09-26T00:10:50.813Z,0.80
2018-09-26T00:13:17.971Z,0.90
2018-09-26T00:15:45.017Z,1.00
2018-09-26T00:18:12.098Z,1.00
2018-09-26T00:20:39.509Z,0.90
2018-09-26T00:23:06.747Z,1.10
2018-09-26T00:25:33.827Z,0.83
2018-09-26T00:28:01.061Z,0.67
2018-09-26T00:30:28.329Z,0.90
2018-09-26T00:32:55.405Z,1.10
2018-09-26T00:35:22.492Z,0.90
2018-09-26T00:37:49.776Z,1.10
2018-09-26T00:40:16.886Z,1.03
2018-09-26T00:42:44.525Z,0.93
2018-09-26T00:45:11.613Z,0.97
2018-09-26T00:47:38.697Z,1.07
2018-09-26T00:50:05.841Z,0.90
2018-09-26T00:52:32.917Z,0.63
2018-09-26T00:54:59.993Z,1.40
2018-09-26T00:57:27.085Z,1.20
2018-09-26T00:59:54.154Z,0.77
2018-09-26T01:02:21.226Z,1.00
2018-09-26T01:04:48.613Z,1.00
2018-09-26T01:07:15.681Z,1.07
2018-09-26T01:09:42.769Z,1.07
2018-09-26T01:12:09.881Z,0.83
2018-09-26T01:14:36.964Z,0.90
2018-09-26T01:17:04.155Z,0.93
2018-09-26T01:20:55.845Z,0.80
2018-09-26T01:23:22.929Z,1.23
2018-09-26T01:25:50.005Z,1.00
2018-09-26T01:28:17.082Z,1.50
2018-09-26T01:30:44.405Z,0.80
2018-09-26T01:33:11.497Z,1.30
2018-09-26T01:35:38.605Z,1.20
2018-09-26T01:38:05.809Z,1.40
2018-09-26T01:40:32.902Z,0.90
2018-09-26T01:43:00.276Z,1.20
2018-09-26T01:45:27.357Z,1.00
2018-09-26T01:47:54.441Z,0.90
2018-09-26T01:50:21.518Z,1.00
2018-09-26T01:52:48.593Z,1.57
2018-09-26T01:55:15.667Z,0.90
2018-09-26T01:57:42.757Z,1.20
2018-09-26T02:00:09.835Z,1.30
2018-09-26T02:02:36.906Z,1.23
2018-09-26T02:05:04.297Z,0.90
2018-09-26T02:07:31.483Z,1.00
2018-09-26T02:09:58.553Z,0.83
2018-09-26T02:12:25.657Z,1.90
2018-09-26T02:14:52.734Z,1.50
2018-09-26T02:17:20.012Z,0.97
2018-09-26T02:19:47.145Z,1.00
2018-09-26T02:22:14.220Z,0.93
2018-09-26T02:24:41.311Z,1.23
2018-09-26T02:27:08.399Z,1.17
2018-09-26T02:29:35.469Z,1.40
2018-09-26T02:32:02.556Z,1.47
2018-09-26T02:34:29.632Z,1.20
2018-09-26T02:36:56.709Z,1.93
2018-09-26T02:39:23.774Z,1.73
2018-09-26T02:41:56.883Z,1.80
2018-09-26T02:44:24.166Z,1.47
2018-09-26T02:46:51.269Z,1.67
2018-09-26T02:49:18.348Z,1.70
2018-09-26T02:51:45.419Z,1.23
2018-09-26T02:54:12.494Z,1.73
2018-09-26T02:56:39.570Z,1.50
2018-09-26T02:59:06.637Z,1.87
2018-09-26T03:01:33.726Z,1.73
2018-09-26T03:04:00.813Z,1.77
2018-09-26T03:06:27.889Z,1.80
2018-09-26T03:08:54.967Z,1.90
2018-09-26T03:11:22.378Z,2.30
2018-09-26T03:13:49.455Z,1.93
2018-09-26T03:16:16.529Z,1.90
2018-09-26T03:18:43.705Z,2.20
2018-09-26T03:21:10.796Z,1.73
2018-09-26T03:23:37.915Z,2.00
2018-09-26T03:26:05.015Z,2.40
2018-09-26T03:28:32.102Z,2.10
2018-09-26T03:30:59.394Z,2.53
2018-09-26T03:33:26.496Z,1.57
2018-09-26T03:35:53.577Z,2.20
2018-09-26T03:38:20.661Z,1.50
2018-09-26T03:40:47.743Z,1.77
2018-09-26T03:43:14.835Z,2.07
2018-09-26T03:45:41.957Z,1.73
2018-09-26T03:48:09.058Z,2.10
2018-09-26T03:50:36.142Z,1.70
2018-09-26T03:53:03.585Z,1.40
2018-09-26T03:55:30.669Z,1.60
2018-09-26T03:57:57.771Z,1.70
2018-09-26T04:00:24.849Z,1.37
2018-09-26T04:02:51.947Z,1.50
2018-09-26T04:05:19.041Z,1.77
2018-09-26T04:07:46.126Z,1.70
2018-09-26T04:10:13.209Z,1.20
2018-09-26T04:12:40.444Z,1.30
2018-09-26T04:15:07.397Z,1.77
2018-09-26T04:17:34.488Z,1.60
2018-09-26T04:20:01.669Z,1.60
2018-09-26T04:22:28.793Z,1.47
2018-09-26T04:24:55.870Z,1.23
2018-09-26T04:27:23.161Z,1.30
2018-09-26T04:29:50.097Z,1.43
2018-09-26T04:32:17.202Z,1.27
2018-09-26T04:34:44.274Z,2.20
2018-09-26T04:37:11.368Z,1.40
2018-09-26T04:39:38.453Z,1.60
2018-09-26T04:42:05.546Z,1.70
2018-09-26T04:44:32.641Z,1.43
2018-09-26T04:46:59.881Z,1.73
2018-09-26T04:49:27.030Z,1.80
2018-09-26T04:51:54.132Z,1.80
2018-09-26T04:54:21.577Z,1.40
2018-09-26T04:56:48.659Z,1.60
2018-09-26T04:59:15.758Z,1.43
2018-09-26T05:01:43.149Z,1.60
2018-09-26T05:04:10.229Z,1.60
2018-09-26T05:06:37.309Z,1.97
2018-09-26T05:09:07.289Z,1.70
2018-09-26T05:11:34.433Z,2.00
2018-09-26T05:14:01.517Z,1.80
2018-09-26T05:16:28.615Z,1.87
2018-09-26T05:18:55.721Z,1.80
2018-09-26T05:21:22.810Z,2.20
2018-09-26T05:23:49.893Z,1.90
2018-09-26T05:26:16.987Z,1.63
2018-09-26T05:28:44.081Z,1.50
2018-09-26T05:31:11.165Z,1.50
2018-09-26T05:33:38.238Z,1.97
2018-09-26T05:36:05.124Z,1.37
2018-09-26T05:38:32.191Z,1.90
2018-09-26T05:40:59.281Z,2.47
2018-09-26T05:43:26.353Z,1.60
2018-09-26T05:45:53.429Z,1.70
2018-09-26T05:48:20.507Z,1.53
2018-09-26T05:50:47.600Z,1.40
2018-09-26T05:53:14.673Z,1.20
2018-09-26T05:55:41.746Z,1.83
2018-09-26T05:58:08.809Z,1.90
2018-09-26T06:00:35.875Z,1.57
2018-09-26T06:03:02.949Z,1.73
2018-09-26T06:05:30.084Z,1.10
2018-09-26T06:07:57.117Z,1.13
2018-09-26T06:10:24.186Z,1.40
2018-09-26T06:12:51.283Z,1.80
2018-09-26T06:15:18.349Z,1.70
2018-09-26T06:17:45.422Z,1.30
2018-09-26T06:20:12.509Z,1.33
2018-09-26T06:22:39.953Z,1.63
2018-09-26T06:25:07.019Z,1.93
2018-09-26T06:27:34.089Z,1.63
2018-09-26T06:30:01.431Z,1.80
2018-09-26T06:32:28.487Z,1.70
2018-09-26T06:34:55.591Z,1.90
2018-09-26T06:37:22.642Z,1.40
2018-09-26T06:39:49.719Z,1.60
2018-09-26T06:42:16.785Z,1.27
2018-09-26T06:44:43.877Z,1.53
2018-09-26T06:47:10.945Z,1.13
2018-09-26T06:49:38.022Z,1.60
2018-09-26T06:52:05.128Z,1.53
2018-09-26T06:54:32.212Z,2.17
2018-09-26T06:56:59.278Z,1.27
2018-09-26T06:59:26.345Z,1.43
2018-09-26T07:01:53.413Z,1.47
2018-09-26T07:04:20.493Z,1.27
2018-09-26T07:06:47.553Z,1.40
2018-09-26T07:09:14.625Z,1.20
2018-09-26T07:11:41.719Z,1.33
2018-09-26T07:14:08.795Z,1.67
2018-09-26T07:16:35.933Z,1.20
2018-09-26T07:19:03.013Z,1.33
2018-09-26T07:21:30.678Z,1.43
2018-09-26T07:23:57.801Z,1.30
2018-09-26T07:26:24.854Z,1.47
2018-09-26T07:28:51.929Z,1.10
2018-09-26T07:31:19.093Z,1.20
2018-09-26T07:33:46.154Z,1.33
2018-09-26T07:36:13.233Z,1.80
2018-09-26T07:38:40.349Z,1.50
2018-09-26T07:41:07.645Z,1.87
2018-09-26T07:43:34.833Z,1.17
2018-09-26T07:46:01.909Z,1.40
2018-09-26T07:48:28.997Z,1.00
2018-09-26T07:50:56.078Z,1.37
2018-09-26T07:53:23.156Z,1.30
2018-09-26T07:55:50.242Z,1.37
2018-09-26T07:58:17.327Z,2.00
2018-09-26T08:00:44.398Z,5.03
2018-09-26T08:03:11.485Z,6.00
2018-09-26T08:05:38.565Z,4.50
2018-09-26T08:08:05.665Z,4.17
2018-09-26T08:10:32.994Z,4.53
2018-09-26T08:13:00.327Z,4.13
2018-09-26T08:15:27.407Z,4.40
2018-09-26T08:17:54.490Z,4.50
2018-09-26T08:20:21.561Z,3.40
2018-09-26T08:22:48.749Z,3.33
2018-09-26T08:25:15.825Z,3.73
2018-09-26T08:27:42.918Z,4.20
2018-09-26T08:30:09.993Z,3.43
2018-09-26T08:32:37.402Z,4.63
2018-09-26T08:35:04.477Z,4.23
2018-09-26T08:37:31.550Z,3.43
2018-09-26T08:39:58.740Z,3.37
2018-09-26T08:42:25.807Z,3.87
2018-09-26T08:44:52.873Z,3.20
2018-09-26T08:47:19.981Z,3.27
2018-09-26T08:49:47.077Z,2.90
2018-09-26T08:52:14.151Z,3.77
2018-09-26T08:54:41.593Z,3.73
2018-09-26T08:57:08.666Z,4.20
2018-09-26T08:59:35.788Z,4.07
2018-09-26T09:02:03.273Z,3.27
2018-09-26T09:04:30.345Z,3.93
2018-09-26T09:06:57.429Z,4.00
2018-09-26T09:09:24.501Z,4.33
2018-09-26T09:11:51.577Z,5.87
2018-09-26T09:14:18.736Z,7.73
2018-09-26T09:16:45.745Z,9.73
2018-09-26T09:19:12.816Z,9.73
2018-09-26T09:21:39.894Z,11.43
2018-09-26T09:24:06.981Z,11.17
2018-09-26T09:26:34.114Z,11.60
2018-09-26T09:29:01.186Z,12.17
2018-09-26T09:31:28.621Z,11.17
2018-09-26T09:33:55.777Z,11.30
2018-09-26T09:36:22.862Z,11.67
2018-09-26T09:38:49.943Z,10.93
2018-09-26T09:41:17.033Z,10.17
2018-09-26T09:43:44.105Z,9.73
2018-09-26T09:46:11.201Z,7.97
2018-09-26T09:48:38.270Z,8.27
2018-09-26T09:51:05.345Z,6.40
2018-09-26T09:53:32.437Z,6.87
2018-09-26T09:55:59.512Z,6.03
2018-09-26T09:58:26.597Z,6.03
2018-09-26T10:00:59.553Z,5.87
2018-09-26T10:03:26.631Z,6.97
2018-09-26T10:05:53.713Z,8.80
2018-09-26T10:08:21.128Z,5.67
2018-09-26T10:10:48.153Z,4.67
2018-09-26T10:13:15.235Z,4.03
2018-09-26T10:15:42.506Z,3.20
2018-09-26T10:18:09.577Z,2.23
2018-09-26T10:20:36.839Z,2.23
2018-09-26T10:23:03.921Z,1.93
2018-09-26T10:25:30.994Z,2.13
2018-09-26T10:27:58.421Z,1.93
2018-09-26T10:30:25.485Z,1.27
2018-09-26T10:32:52.691Z,1.17
2018-09-26T10:35:19.765Z,1.47
2018-09-26T10:37:46.833Z,1.43
2018-09-26T10:40:14.089Z,1.50
2018-09-26T10:42:41.197Z,1.20
2018-09-26T10:45:08.588Z,1.20
2018-09-26T10:47:35.694Z,1.70
2018-09-26T10:50:02.777Z,0.80
2018-09-26T10:52:30.049Z,0.90
2018-09-26T10:54:57.129Z,1.30
2018-09-26T10:57:24.491Z,1.30
2018-09-26T10:59:51.567Z,1.07
2018-09-26T11:02:18.693Z,1.20
2018-09-26T11:04:45.721Z,0.87
2018-09-26T11:07:12.815Z,1.27
2018-09-26T11:09:39.886Z,0.93
2018-09-26T11:12:06.965Z,0.90
2018-09-26T11:14:34.069Z,1.03
2018-09-26T11:17:01.146Z,1.07
2018-09-26T11:19:28.226Z,1.13
2018-09-26T11:21:55.297Z,0.80
2018-09-26T11:24:22.381Z,1.03
2018-09-26T11:26:49.449Z,0.70
2018-09-26T11:29:16.538Z,0.90
2018-09-26T11:31:43.601Z,0.70
2018-09-26T11:34:10.687Z,1.03
2018-09-26T11:36:37.800Z,0.63
2018-09-26T11:39:06.753Z,0.80
2018-09-26T11:41:33.833Z,1.10
2018-09-26T11:44:00.905Z,0.70
2018-09-26T11:46:27.989Z,1.07
2018-09-26T11:48:55.061Z,0.80
2018-09-26T11:51:22.145Z,0.83
2018-09-26T11:53:49.246Z,1.07
2018-09-26T11:56:16.325Z,1.30
2018-09-26T11:58:43.398Z,0.73
2018-09-26T12:01:10.554Z,0.87
2018-09-26T12:03:37.662Z,0.90
2018-09-26T12:06:04.729Z,0.87
2018-09-26T12:08:31.838Z,1.07
2018-09-26T12:10:58.925Z,1.00
2018-09-26T12:13:26.009Z,0.77
2018-09-26T12:15:53.103Z,1.37
2018-09-26T12:18:20.252Z,0.90
2018-09-26T12:20:47.296Z,0.83
2018-09-26T12:23:14.394Z,0.77
2018-09-26T12:25:41.477Z,0.83
2018-09-26T12:28:08.647Z,0.80
2018-09-26T12:30:35.860Z,0.70
2018-09-26T12:33:02.949Z,0.80
2018-09-26T12:35:30.020Z,0.87
2018-09-26T12:37:57.093Z,1.17
2018-09-26T12:40:24.185Z,2.00
2018-09-26T12:42:51.360Z,1.00
2018-09-26T12:45:18.341Z,0.97
2018-09-26T12:47:45.420Z,1.00
2018-09-26T12:50:12.509Z,0.90
2018-09-26T12:52:39.582Z,1.27
2018-09-26T12:55:06.692Z,1.00
2018-09-26T12:57:33.963Z,1.30
2018-09-26T13:00:01.033Z,0.90
2018-09-26T13:02:28.142Z,0.97
2018-09-26T13:04:55.229Z,1.00
2018-09-26T13:07:22.297Z,0.90
2018-09-26T13:09:49.380Z,1.83
2018-09-26T13:12:16.517Z,1.20
2018-09-26T13:14:43.549Z,0.70
2018-09-26T13:17:10.642Z,0.90
2018-09-26T13:19:37.745Z,1.10
2018-09-26T13:22:04.855Z,0.80
2018-09-26T13:24:31.933Z,1.00
2018-09-26T13:26:59.033Z,1.17
2018-09-26T13:29:26.114Z,1.50
2018-09-26T13:31:53.186Z,1.33
2018-09-26T13:34:20.272Z,1.40
2018-09-26T13:36:47.354Z,0.80
2018-09-26T13:39:14.504Z,1.00
2018-09-26T13:41:41.603Z,1.20
2018-09-26T13:44:08.772Z,1.10
2018-09-26T13:46:36.116Z,1.10
2018-09-26T13:49:03.109Z,1.30
2018-09-26T13:51:30.185Z,0.93
2018-09-26T13:53:57.289Z,2.37
2018-09-26T13:56:24.677Z,1.10
2018-09-26T13:58:51.634Z,0.93
2018-09-26T14:01:18.765Z,1.13
2018-09-26T14:03:45.834Z,0.90
2018-09-26T14:06:12.913Z,0.80
2018-09-26T14:08:40.064Z,0.90
2018-09-26T14:11:07.085Z,0.80
2018-09-26T14:13:34.181Z,1.27
2018-09-26T14:16:01.254Z,1.03
2018-09-26T14:18:28.331Z,1.10
2018-09-26T14:20:55.417Z,1.30
2018-09-26T14:23:22.594Z,1.10
2018-09-26T14:25:49.606Z,1.00
2018-09-26T14:28:16.746Z,0.93
2018-09-26T14:30:43.971Z,1.10
2018-09-26T14:33:10.940Z,1.27
2018-09-26T14:35:37.966Z,1.07
2018-09-26T14:38:05.062Z,1.63
2018-09-26T14:40:32.138Z,1.03
2018-09-26T14:42:59.238Z,1.10
2018-09-26T14:45:26.385Z,1.43
2018-09-26T14:47:53.393Z,0.80
2018-09-26T14:50:20.535Z,2.00
2018-09-26T14:52:47.559Z,0.83
2018-09-26T14:55:14.698Z,0.90
2018-09-26T14:57:41.754Z,1.13
2018-09-26T15:00:08.936Z,1.10
2018-09-26T15:02:36.126Z,0.70
2018-09-26T15:05:03.238Z,1.23
2018-09-26T15:07:30.315Z,1.00
2018-09-26T15:09:57.394Z,1.50
2018-09-26T15:12:24.593Z,1.00
2018-09-26T15:14:51.569Z,1.37
2018-09-26T15:17:18.642Z,1.07
2018-09-26T15:19:45.725Z,1.27
2018-09-26T15:22:12.857Z,0.90
2018-09-26T15:24:39.897Z,2.07
2018-09-26T15:27:06.967Z,2.00
2018-09-26T15:29:34.071Z,1.20
2018-09-26T15:32:01.158Z,1.30
2018-09-26T15:34:28.249Z,0.87
2018-09-26T15:36:55.318Z,1.00
2018-09-26T15:39:22.394Z,1.13
2018-09-26T15:41:49.462Z,1.10
2018-09-26T15:44:16.603Z,0.93
2018-09-26T15:46:43.721Z,1.80
2018-09-26T15:49:10.797Z,1.17
2018-09-26T15:51:38.002Z,0.90
2018-09-26T15:54:05.087Z,1.03
2018-09-26T15:56:32.162Z,1.03
2018-09-26T15:58:59.877Z,1.83
2018-09-26T16:01:26.942Z,1.10
2018-09-26T16:03:54.037Z,0.90
2018-09-26T16:06:21.260Z,1.07
2018-09-26T16:08:48.349Z,1.20
2018-09-26T16:11:15.431Z,2.00
2018-09-26T16:13:42.533Z,0.97
2018-09-26T16:16:09.789Z,1.10
2018-09-26T16:18:36.846Z,1.27
2018-09-26T16:21:03.928Z,0.70
2018-09-26T16:23:31.004Z,1.00
2018-09-26T16:25:58.118Z,0.83
2018-09-26T16:28:25.301Z,1.10
2018-09-26T16:30:52.424Z,1.20
2018-09-26T16:33:19.494Z,1.20
2018-09-26T16:35:46.577Z,1.03
2018-09-26T16:38:13.906Z,2.17
2018-09-26T16:40:40.953Z,1.00
2018-09-26T16:43:08.055Z,1.80
2018-09-26T16:45:35.133Z,1.53
2018-09-26T16:48:02.320Z,1.50
2018-09-26T16:50:29.406Z,2.20
2018-09-26T16:52:56.482Z,1.37
2018-09-26T16:55:23.582Z,1.20
2018-09-26T16:57:50.685Z,1.47
2018-09-26T17:00:17.812Z,1.30
2018-09-26T17:02:44.845Z,1.00
2018-09-26T17:05:11.938Z,1.37
2018-09-26T17:07:39.021Z,1.40
2018-09-26T17:10:06.125Z,1.50
2018-09-26T17:12:33.181Z,0.87
2018-09-26T17:15:00.254Z,1.30
2018-09-26T17:17:27.322Z,1.23
2018-09-26T17:19:54.441Z,1.40
2018-09-26T17:22:21.542Z,1.20
2018-09-26T17:24:48.607Z,1.20
2018-09-26T17:27:15.698Z,0.93
2018-09-26T17:29:42.777Z,1.30
2018-09-26T17:32:09.884Z,1.10
2018-09-26T17:34:37.003Z,1.00
2018-09-26T17:37:04.341Z,1.43
2018-09-26T17:39:31.435Z,0.90
2018-09-26T17:41:58.514Z,1.13
2018-09-26T17:44:25.599Z,0.87
2018-09-26T17:46:52.685Z,1.40
2018-09-26T17:49:19.849Z,1.57
2018-09-26T17:51:46.913Z,1.57
2018-09-26T17:54:14.021Z,1.20
2018-09-26T17:56:41.129Z,0.97
2018-09-26T17:59:08.227Z,1.17
2018-09-26T18:01:35.394Z,1.30
2018-09-26T18:04:02.423Z,1.57
2018-09-26T18:06:29.517Z,1.60
2018-09-26T18:08:56.636Z,1.17
2018-09-26T18:11:23.713Z,1.20
2018-09-26T18:13:50.797Z,1.13
2018-09-26T18:16:17.873Z,1.63
2018-09-26T18:18:44.961Z,1.30
2018-09-26T18:21:12.045Z,1.00
2018-09-26T18:23:39.143Z,1.47
2018-09-26T18:26:06.222Z,1.20
2018-09-26T18:28:33.307Z,1.07
2018-09-26T18:31:00.456Z,0.83
2018-09-26T18:33:27.514Z,0.90
2018-09-26T18:35:54.590Z,1.10
2018-09-26T18:38:21.683Z,1.30
2018-09-26T18:40:48.781Z,1.20
2018-09-26T18:43:15.909Z,1.60
2018-09-26T18:45:43.001Z,1.30
2018-09-26T18:48:10.084Z,1.40
2018-09-26T18:50:37.201Z,1.00
2018-09-26T18:53:04.439Z,1.70
2018-09-26T18:55:31.525Z,1.07
2018-09-26T18:57:58.622Z,1.20
2018-09-26T19:00:25.724Z,1.47
2018-09-26T19:02:52.868Z,1.20
2018-09-26T19:05:19.910Z,1.03
2018-09-26T19:07:46.984Z,1.10
2018-09-26T19:10:15.558Z,1.20
2018-09-26T19:12:42.678Z,1.10
2018-09-26T19:15:09.813Z,1.57
2018-09-26T19:17:36.857Z,1.33
2018-09-26T19:21:28.576Z,1.33
2018-09-26T19:23:55.675Z,1.57
2018-09-26T19:26:22.749Z,1.10
2018-09-26T19:28:49.839Z,1.87
2018-09-26T19:31:17.149Z,1.30
2018-09-26T19:33:44.268Z,1.77
2018-09-26T19:36:11.684Z,1.40
2018-09-26T19:38:38.757Z,1.97
2018-09-26T19:41:05.838Z,1.80
2018-09-26T19:43:32.929Z,1.57
2018-09-26T19:46:00.034Z,2.40
2018-09-26T19:48:27.146Z,1.70
2018-09-26T19:50:54.298Z,1.60
2018-09-26T19:53:21.357Z,2.23
2018-09-26T19:55:48.433Z,2.37
2018-09-26T19:58:15.577Z,1.30
2018-09-26T20:00:43.013Z,1.90
2018-09-26T20:03:10.233Z,1.47
2018-09-26T20:05:37.329Z,1.70
2018-09-26T20:08:04.525Z,1.50
2018-09-26T20:10:31.545Z,1.50
2018-09-26T20:12:59.049Z,1.60
2018-09-26T20:15:26.090Z,2.73
2018-09-26T20:17:53.197Z,1.40
2018-09-26T20:20:20.291Z,1.40
2018-09-26T20:22:47.379Z,1.60
2018-09-26T20:25:14.593Z,1.60
2018-09-26T20:27:41.701Z,2.00
2018-09-26T20:30:08.809Z,1.30
2018-09-26T20:32:35.933Z,1.67
2018-09-26T20:35:03.101Z,2.17
2018-09-26T20:37:30.186Z,1.83
2018-09-26T20:39:57.263Z,1.70
2018-09-26T20:42:24.350Z,1.13
2018-09-26T20:44:51.432Z,0.90
2018-09-26T20:47:18.542Z,1.03
2018-09-26T20:49:45.641Z,1.50
2018-09-26T20:52:12.725Z,1.13
2018-09-26T20:54:39.821Z,1.23
2018-09-26T20:57:06.920Z,1.20
2018-09-26T20:59:33.990Z,1.03
2018-09-26T21:02:01.126Z,2.03
2018-09-26T21:04:28.209Z,1.50
2018-09-26T21:06:55.297Z,1.50
2018-09-26T21:09:22.389Z,1.40
2018-09-26T21:11:49.512Z,1.33
2018-09-26T21:14:16.545Z,1.37
2018-09-26T21:16:43.646Z,1.17
2018-09-26T21:19:10.746Z,1.53
2018-09-26T21:21:37.825Z,0.90
2018-09-26T21:24:04.917Z,1.67
2018-09-26T21:26:31.993Z,1.30
2018-09-26T21:28:59.073Z,1.30
2018-09-26T21:31:26.174Z,1.47
2018-09-26T21:33:53.250Z,1.20
2018-09-26T21:36:20.413Z,1.80
2018-09-26T21:38:47.553Z,1.33
2018-09-26T21:41:14.681Z,1.53
2018-09-26T21:43:41.777Z,1.37
2018-09-26T21:46:09.185Z,1.03
2018-09-26T21:48:36.265Z,1.60
2018-09-26T21:51:04.091Z,1.53
2018-09-26T21:53:31.226Z,1.10
2018-09-26T21:55:58.329Z,1.27
2018-09-26T21:58:25.425Z,1.37
2018-09-26T22:01:29.189Z,1.37
2018-09-26T22:03:56.285Z,1.20
2018-09-26T22:06:23.422Z,2.87
2018-09-26T22:08:50.519Z,1.50
2018-09-26T22:11:17.681Z,1.70
2018-09-26T22:13:44.782Z,1.50
2018-09-26T22:16:11.959Z,1.93
2018-09-26T22:18:39.044Z,1.40
2018-09-26T22:21:06.149Z,1.13
2018-09-26T22:23:33.304Z,1.90
2018-09-26T22:26:00.317Z,1.37
2018-09-26T22:28:27.410Z,1.53
2018-09-26T22:30:54.517Z,1.63
2018-09-26T22:33:21.978Z,1.43
2018-09-26T22:35:49.061Z,1.30
2018-09-26T22:38:16.223Z,1.20
2018-09-26T22:40:43.254Z,1.00
2018-09-26T22:43:10.329Z,1.47
2018-09-26T22:45:37.397Z,1.07
2018-09-26T22:48:04.506Z,0.70
2018-09-26T22:50:31.607Z,0.90
2018-09-26T22:52:58.733Z,1.10
2018-09-26T22:55:25.829Z,1.73
2018-09-26T22:57:53.229Z,1.27
2018-09-26T23:00:20.313Z,1.17
2018-09-26T23:02:47.398Z,1.43
2018-09-26T23:05:14.465Z,1.60
2018-09-26T23:07:41.544Z,1.20
2018-09-26T23:10:08.637Z,1.20
2018-09-26T23:12:35.721Z,1.20
2018-09-26T23:15:02.800Z,1.50
2018-09-26T23:17:29.893Z,1.50
2018-09-26T23:19:57.005Z,1.57
2018-09-26T23:22:24.089Z,1.27
2018-09-26T23:24:52.093Z,1.63
2018-09-26T23:27:19.174Z,1.10
2018-09-26T23:29:46.273Z,1.03
2018-09-26T23:32:13.353Z,1.23
2018-09-26T23:34:40.428Z,1.30
2018-09-26T23:37:07.513Z,1.23
2018-09-26T23:39:34.595Z,0.97
2018-09-26T23:42:01.722Z,0.90
2018-09-26T23:44:28.801Z,1.37
2018-09-26T23:46:55.895Z,0.97
2018-09-26T23:49:23.278Z,1.17
2018-09-26T23:51:50.358Z,1.50
2018-09-26T23:54:17.829Z,1.50
2018-09-26T23:56:44.909Z,1.50
2018-09-26T23:59:12.017Z,1.27
